createdAt,value
2023-03-18T00:02:07.197Z,5.50
2023-03-18T00:03:58.597Z,6.10
2023-03-18T00:06:00.193Z,7.30
2023-03-18T00:09:04.598Z,4.00
2023-03-18T00:11:58.936Z,5.20
2023-03-18T00:15:08.194Z,4.60
2023-03-18T00:16:37.908Z,7.40
2023-03-18T00:21:50.425Z,6.90
2023-03-18T00:23:19.108Z,6.80
2023-03-18T00:25:38.051Z,6.70
2023-03-18T00:28:02.889Z,6.20
2023-03-18T00:36:43.445Z,6.20
2023-03-18T00:40:05.242Z,8.10
2023-03-18T00:44:09.662Z,3.80
2023-03-18T00:45:43.131Z,10.30
2023-03-18T00:47:51.371Z,8.50
2023-03-18T00:55:17.023Z,9.50
2023-03-18T00:57:48.946Z,6.60
2023-03-18T00:59:59.052Z,6.70
2023-03-18T01:03:05.949Z,6.30
2023-03-18T01:06:14.162Z,8.70
2023-03-18T01:12:32.627Z,8.50
2023-03-18T01:21:29.785Z,9.30
2023-03-18T01:24:36.732Z,8.20
2023-03-18T01:26:08.580Z,7.30
2023-03-18T01:27:37.081Z,5.50
2023-03-18T01:30:33.475Z,9.10
2023-03-18T01:32:02.100Z,10.40
2023-03-18T01:35:21.225Z,13.70
2023-03-18T01:36:50.169Z,8.10
2023-03-18T01:39:11.752Z,6.70
2023-03-18T01:41:42.587Z,10.80
2023-03-18T01:48:19.000Z,8.30
2023-03-18T01:51:45.557Z,10.60
2023-03-18T01:54:20.091Z,8.00
2023-03-18T01:56:56.374Z,9.70
2023-03-18T02:00:15.283Z,7.60
2023-03-18T02:01:47.142Z,10.30
2023-03-18T02:03:14.341Z,8.00
2023-03-18T02:04:44.696Z,8.40
2023-03-18T02:07:15.630Z,7.80
2023-03-18T02:08:44.012Z,9.90
2023-03-18T02:10:34.593Z,8.60
2023-03-18T02:16:11.835Z,8.00
2023-03-18T02:22:23.918Z,10.10
2023-03-18T02:23:58.235Z,7.70
2023-03-18T02:26:58.766Z,11.30
2023-03-18T02:29:37.479Z,9.00
2023-03-18T02:30:14.513Z,8.40
2023-03-18T02:31:14.491Z,6.90
2023-03-18T02:34:59.650Z,7.70
2023-03-18T02:36:28.680Z,9.20
2023-03-18T02:39:38.224Z,9.50
2023-03-18T02:42:42.682Z,7.40
2023-03-18T02:46:37.988Z,7.00
2023-03-18T02:51:00.368Z,9.60
2023-03-18T02:53:41.727Z,10.20
2023-03-18T02:56:58.804Z,10.40
2023-03-18T03:02:43.750Z,9.30
2023-03-18T03:05:34.600Z,9.40
2023-03-18T03:08:23.943Z,8.90
2023-03-18T03:15:03.049Z,9.40
2023-03-18T03:17:50.998Z,8.90
2023-03-18T03:20:42.656Z,10.00
2023-03-18T03:28:58.790Z,8.70
2023-03-18T03:32:11.149Z,7.90
2023-03-18T03:38:45.422Z,10.80
2023-03-18T03:40:15.310Z,8.70
2023-03-18T03:43:23.853Z,7.90
2023-03-18T03:46:45.085Z,11.00
2023-03-18T03:50:14.901Z,9.60
2023-03-18T03:56:31.799Z,9.40
2023-03-18T03:58:30.122Z,10.10
2023-03-18T04:00:01.821Z,9.50
2023-03-18T04:03:55.977Z,11.60
2023-03-18T04:05:24.181Z,9.90
2023-03-18T04:07:58.002Z,8.50
2023-03-18T04:14:39.401Z,11.10
2023-03-18T04:16:37.751Z,11.60
2023-03-18T04:18:39.414Z,11.20
2023-03-18T04:21:10.509Z,9.00
2023-03-18T04:22:37.829Z,13.70
2023-03-18T04:29:03.420Z,13.50
2023-03-18T04:30:31.123Z,14.50
2023-03-18T04:37:24.704Z,17.30
2023-03-18T04:40:29.526Z,13.80
2023-03-18T04:45:37.532Z,11.40
2023-03-18T04:47:35.352Z,14.40
2023-03-18T04:49:10.605Z,13.00
2023-03-18T04:51:32.416Z,17.10
2023-03-18T04:53:02.134Z,10.50
2023-03-18T04:54:57.332Z,10.80
2023-03-18T04:59:55.339Z,10.30
2023-03-18T05:01:24.127Z,13.90
2023-03-18T05:03:26.005Z,16.10
2023-03-18T05:05:24.942Z,15.40
2023-03-18T05:10:27.387Z,13.50
2023-03-18T05:14:19.560Z,11.00
2023-03-18T05:16:37.784Z,10.80
2023-03-18T05:18:37.661Z,12.60
2023-03-18T05:21:34.813Z,12.40
2023-03-18T05:23:33.886Z,14.50
2023-03-18T05:27:51.715Z,15.60
2023-03-18T05:32:18.312Z,11.00
2023-03-18T05:34:45.864Z,16.90
2023-03-18T05:37:13.779Z,12.00
2023-03-18T05:40:17.983Z,15.10
2023-03-18T05:43:06.588Z,19.00
2023-03-18T05:45:05.595Z,13.30
2023-03-18T05:47:02.101Z,16.30
2023-03-18T05:50:12.331Z,15.40
2023-03-18T05:55:01.657Z,12.70
2023-03-18T05:57:03.421Z,18.30
2023-03-18T06:00:26.419Z,18.40
2023-03-18T06:04:32.602Z,16.80
2023-03-18T06:06:03.953Z,16.20
2023-03-18T06:08:36.700Z,15.80
2023-03-18T06:14:50.582Z,19.00
2023-03-18T06:16:18.918Z,19.20
2023-03-18T06:18:23.622Z,17.40
2023-03-18T06:20:53.190Z,21.50
2023-03-18T06:22:54.026Z,21.80
2023-03-18T06:25:47.892Z,21.30
2023-03-18T06:28:39.792Z,19.80
2023-03-18T06:31:32.901Z,21.70
2023-03-18T06:34:22.711Z,25.40
2023-03-18T06:35:53.529Z,20.80
2023-03-18T06:42:13.651Z,24.30
2023-03-18T06:43:43.583Z,25.50
2023-03-18T06:47:20.496Z,23.20
2023-03-18T06:50:10.512Z,20.70
2023-03-18T06:51:43.893Z,23.00
2023-03-18T06:53:14.958Z,20.40
2023-03-18T07:00:19.431Z,24.30
2023-03-18T07:01:49.177Z,21.10
2023-03-18T07:03:22.383Z,23.00
2023-03-18T07:06:55.899Z,26.10
2023-03-18T07:13:38.301Z,23.30
2023-03-18T07:16:04.947Z,26.70
2023-03-18T07:17:34.408Z,24.20
2023-03-18T07:20:07.668Z,23.70
2023-03-18T07:21:36.836Z,26.30
2023-03-18T07:28:22.137Z,27.70
2023-03-18T07:30:25.119Z,25.90
2023-03-18T07:35:38.527Z,24.00
2023-03-18T07:40:46.754Z,29.90
2023-03-18T07:42:14.525Z,28.40
2023-03-18T07:44:14.405Z,29.00
2023-03-18T07:51:47.357Z,22.00
2023-03-18T07:54:14.761Z,24.70
2023-03-18T07:55:42.872Z,22.00
2023-03-18T07:58:00.752Z,24.60
2023-03-18T07:59:57.754Z,24.70
2023-03-18T08:06:22.842Z,24.40
2023-03-18T08:08:21.687Z,25.80
2023-03-18T08:12:51.553Z,24.00
2023-03-18T08:14:08.411Z,28.50
2023-03-18T08:18:45.109Z,21.80
2023-03-18T08:20:42.356Z,21.40
2023-03-18T08:24:26.225Z,20.30
2023-03-18T08:27:24.954Z,22.10
2023-03-18T08:34:26.732Z,18.60
2023-03-18T08:37:48.221Z,19.60
2023-03-18T08:39:23.093Z,15.90
2023-03-18T08:42:46.898Z,20.10
2023-03-18T08:44:48.005Z,15.90
2023-03-18T08:48:42.520Z,18.60
2023-03-18T08:56:10.798Z,18.40
2023-03-18T08:57:46.712Z,15.10
2023-03-18T08:59:49.519Z,18.40
2023-03-18T09:10:19.194Z,17.70
2023-03-18T09:12:21.472Z,17.10
2023-03-18T09:14:48.174Z,18.10
2023-03-18T09:17:16.442Z,19.10
2023-03-18T09:19:38.040Z,17.10
2023-03-18T09:22:17.330Z,16.80
2023-03-18T09:24:18.174Z,16.20
2023-03-18T09:27:16.930Z,21.50
2023-03-18T09:32:33.718Z,16.20
2023-03-18T09:34:03.731Z,14.70
2023-03-18T09:35:33.311Z,16.00
2023-03-18T09:37:02.724Z,15.40
2023-03-18T09:39:32.275Z,12.80
2023-03-18T09:41:01.390Z,14.10
2023-03-18T09:43:50.420Z,16.30
2023-03-18T09:46:43.404Z,12.00
2023-03-18T09:48:12.391Z,13.20
2023-03-18T09:55:01.793Z,12.80
2023-03-18T09:56:29.810Z,12.20
2023-03-18T09:59:01.867Z,11.20
2023-03-18T10:03:13.126Z,10.40
2023-03-18T10:06:10.468Z,10.30
2023-03-18T10:09:51.272Z,10.70
2023-03-18T10:13:19.951Z,14.50
2023-03-18T10:15:38.241Z,10.60
2023-03-18T10:17:07.078Z,11.60
2023-03-18T10:18:38.025Z,11.40
2023-03-18T10:21:39.113Z,11.30
2023-03-18T10:25:29.152Z,10.20
2023-03-18T10:27:55.073Z,12.30
2023-03-18T10:30:29.447Z,11.30
2023-03-18T10:31:58.543Z,11.60
2023-03-18T10:38:12.892Z,15.10
2023-03-18T10:39:41.480Z,12.50
2023-03-18T10:41:10.447Z,10.50
2023-03-18T10:46:28.152Z,12.50
2023-03-18T10:52:25.376Z,13.50
2023-03-18T10:54:26.222Z,9.40
2023-03-18T10:59:24.737Z,10.50
2023-03-18T11:01:52.441Z,10.50
2023-03-18T11:11:04.789Z,6.70
2023-03-18T11:15:22.258Z,6.60
2023-03-18T11:17:42.800Z,5.80
2023-03-18T11:23:58.108Z,7.50
2023-03-18T11:26:18.550Z,4.80
2023-03-18T11:30:04.124Z,4.70
2023-03-18T11:33:06.575Z,4.70
2023-03-18T11:34:33.617Z,3.20
2023-03-18T11:36:55.210Z,3.40
2023-03-18T11:39:42.366Z,3.30
2023-03-18T11:42:15.878Z,4.00
2023-03-18T11:43:42.882Z,2.80
2023-03-18T11:48:02.491Z,5.60
2023-03-18T11:49:33.435Z,4.20
2023-03-18T11:51:22.220Z,5.70
2023-03-18T11:53:11.022Z,5.30
2023-03-18T11:54:10.964Z,6.10
2023-03-18T11:55:13.763Z,11.10
2023-03-18T11:56:10.947Z,9.40
2023-03-18T11:58:02.967Z,5.60
2023-03-18T12:00:30.412Z,5.30
2023-03-18T12:03:25.149Z,5.90
2023-03-18T12:06:12.732Z,2.10
2023-03-18T12:07:44.841Z,2.60
2023-03-18T12:15:46.395Z,1.90
2023-03-18T12:17:13.523Z,2.20
2023-03-18T12:21:06.925Z,2.80
2023-03-18T12:24:44.591Z,2.40
2023-03-18T12:28:20.968Z,2.30
2023-03-18T12:30:39.775Z,2.40
2023-03-18T12:32:33.239Z,2.00
2023-03-18T12:36:56.669Z,1.90
2023-03-18T12:39:31.122Z,2.40
2023-03-18T12:42:16.545Z,1.80
2023-03-18T12:44:06.708Z,1.80
2023-03-18T12:45:37.130Z,1.70
2023-03-18T12:47:53.934Z,2.10
2023-03-18T12:50:12.707Z,2.60
2023-03-18T13:03:37.924Z,1.60
2023-03-18T13:05:05.002Z,1.80
2023-03-18T13:07:07.060Z,2.70
2023-03-18T13:09:37.923Z,1.90
2023-03-18T13:11:40.646Z,1.90
2023-03-18T13:13:38.676Z,2.20
2023-03-18T13:18:24.128Z,1.80
2023-03-18T13:20:48.881Z,1.70
2023-03-18T13:22:19.966Z,3.60
2023-03-18T13:23:46.984Z,4.30
2023-03-18T13:26:44.030Z,7.10
2023-03-18T13:30:55.080Z,4.50
2023-03-18T13:32:26.964Z,1.50
2023-03-18T13:33:55.960Z,2.30
2023-03-18T13:35:23.882Z,3.70
2023-03-18T13:37:12.579Z,3.20
2023-03-18T13:40:42.869Z,2.40
2023-03-18T13:42:31.632Z,4.40
2023-03-18T13:48:36.391Z,12.70
2023-03-18T13:50:15.901Z,2.80
2023-03-18T13:53:23.220Z,2.00
2023-03-18T13:56:42.935Z,2.30
2023-03-18T13:59:38.709Z,2.10
2023-03-18T14:01:58.367Z,4.90
2023-03-18T14:03:56.871Z,1.30
2023-03-18T14:05:46.543Z,3.50
2023-03-18T14:08:17.254Z,4.10
2023-03-18T14:11:39.305Z,9.20
2023-03-18T14:13:06.819Z,2.70
2023-03-18T14:15:34.160Z,2.40
2023-03-18T14:20:16.739Z,1.50
2023-03-18T14:21:45.000Z,2.40
2023-03-18T14:23:33.993Z,2.60
2023-03-18T14:27:11.566Z,2.40
2023-03-18T14:29:00.728Z,4.60
2023-03-18T14:30:49.369Z,2.40
2023-03-18T14:34:22.054Z,3.50
2023-03-18T14:36:41.846Z,2.50
2023-03-18T14:38:59.654Z,6.30
2023-03-18T14:40:50.609Z,2.60
2023-03-18T14:42:30.301Z,3.10
2023-03-18T14:44:01.196Z,3.70
2023-03-18T14:46:03.817Z,4.30
2023-03-18T14:48:01.962Z,3.00
2023-03-18T14:49:30.827Z,3.70
2023-03-18T14:53:31.560Z,3.10
2023-03-18T14:56:50.872Z,4.70
2023-03-18T14:58:51.227Z,5.10
2023-03-18T15:01:19.906Z,5.20
2023-03-18T15:05:16.530Z,2.70
2023-03-18T15:08:04.426Z,2.70
2023-03-18T15:13:28.692Z,2.90
2023-03-18T15:18:56.044Z,2.70
2023-03-18T15:21:25.978Z,2.70
2023-03-18T15:23:25.231Z,18.10
2023-03-18T15:24:59.694Z,4.40
2023-03-18T15:27:58.265Z,2.70
2023-03-18T15:29:55.181Z,3.80
2023-03-18T15:31:25.837Z,3.00
2023-03-18T15:33:23.210Z,3.80
2023-03-18T15:38:12.875Z,2.30
2023-03-18T15:40:47.097Z,3.70
2023-03-18T15:46:30.256Z,3.70
2023-03-18T15:50:38.788Z,4.40
2023-03-18T15:52:34.428Z,2.70
2023-03-18T15:55:33.477Z,3.50
2023-03-18T15:57:06.344Z,4.40
2023-03-18T15:58:39.176Z,2.90
2023-03-18T16:01:57.777Z,4.10
2023-03-18T16:03:27.843Z,3.00
2023-03-18T16:09:36.045Z,2.50
2023-03-18T16:13:43.609Z,3.70
2023-03-18T16:17:31.569Z,3.10
2023-03-18T16:20:28.649Z,2.70
2023-03-18T16:23:28.892Z,2.50
2023-03-18T16:26:45.113Z,3.80
2023-03-18T16:31:53.484Z,1.70
2023-03-18T16:38:49.916Z,3.10
2023-03-18T16:40:53.851Z,3.30
2023-03-18T16:43:17.161Z,1.90
2023-03-18T16:44:47.021Z,1.90
2023-03-18T16:49:13.456Z,2.10
2023-03-18T16:53:09.377Z,2.50
2023-03-18T16:56:17.750Z,7.80
2023-03-18T16:57:48.583Z,3.30
2023-03-18T17:00:06.344Z,5.50
2023-03-18T17:02:39.921Z,5.10
2023-03-18T17:04:42.171Z,4.50
2023-03-18T17:09:56.199Z,6.10
2023-03-18T17:12:57.897Z,4.40
2023-03-18T17:16:41.848Z,4.40
2023-03-18T17:18:42.095Z,3.80
2023-03-18T17:26:49.618Z,4.70
2023-03-18T17:29:19.967Z,4.10
2023-03-18T17:33:35.910Z,5.30
2023-03-18T17:35:56.820Z,6.10
2023-03-18T17:39:54.607Z,6.20
2023-03-18T17:42:55.273Z,5.90
2023-03-18T17:48:49.958Z,6.50
2023-03-18T17:51:34.958Z,6.00
2023-03-18T17:54:46.297Z,7.80
2023-03-18T17:56:16.235Z,7.20
2023-03-18T17:57:46.098Z,6.80
2023-03-18T17:59:47.136Z,8.40
2023-03-18T18:01:44.183Z,8.40
2023-03-18T18:05:04.118Z,9.30
2023-03-18T18:07:25.437Z,10.20
2023-03-18T18:08:53.351Z,10.00
2023-03-18T18:10:53.701Z,10.20
2023-03-18T18:17:19.811Z,10.80
2023-03-18T18:18:49.817Z,10.90
2023-03-18T18:23:41.377Z,12.60
2023-03-18T18:27:00.378Z,16.50
2023-03-18T18:38:04.362Z,13.40
2023-03-18T18:41:58.880Z,14.10
2023-03-18T18:43:48.893Z,13.50
2023-03-18T18:47:09.482Z,14.30
2023-03-18T18:48:56.297Z,13.80
2023-03-18T18:51:27.859Z,13.50
2023-03-18T18:53:29.514Z,12.20
2023-03-18T18:55:18.252Z,12.80
2023-03-18T18:58:36.827Z,12.20
2023-03-18T19:01:49.997Z,12.50
2023-03-18T19:07:10.651Z,13.60
2023-03-18T19:08:10.871Z,13.60
2023-03-18T19:08:49.603Z,14.00
2023-03-18T19:09:49.582Z,13.90
2023-03-18T19:14:04.865Z,13.20
2023-03-18T19:14:43.874Z,13.20
2023-03-18T19:15:43.815Z,13.30
2023-03-18T19:17:12.908Z,13.90
2023-03-18T19:19:12.971Z,13.90
2023-03-18T19:29:16.867Z,13.60
2023-03-18T19:30:51.883Z,13.80
2023-03-18T19:33:50.867Z,13.10
2023-03-18T19:36:10.410Z,14.30
2023-03-18T19:42:02.044Z,14.00
2023-03-18T19:43:30.997Z,13.80
2023-03-18T19:45:19.768Z,15.30
2023-03-18T19:49:40.717Z,15.40
2023-03-18T19:52:30.312Z,13.50
2023-03-18T19:54:03.029Z,14.80
2023-03-18T19:58:31.057Z,14.50
2023-03-18T20:00:01.830Z,15.40
2023-03-18T20:02:21.742Z,15.20
2023-03-18T20:04:40.575Z,15.70
2023-03-18T20:10:41.974Z,16.90
2023-03-18T20:14:01.221Z,16.70
2023-03-18T20:16:02.132Z,16.70
2023-03-18T20:23:29.883Z,17.80
2023-03-18T20:26:18.664Z,17.70
2023-03-18T20:27:48.668Z,17.60
2023-03-18T20:37:15.580Z,17.80
2023-03-18T20:39:51.326Z,17.80
2023-03-18T20:41:40.168Z,17.70
2023-03-18T20:43:34.479Z,17.70
2023-03-18T20:49:48.701Z,17.20
2023-03-18T20:51:40.748Z,17.50
2023-03-18T20:59:07.975Z,16.80
2023-03-18T21:00:59.651Z,17.20
2023-03-18T21:03:17.673Z,17.30
2023-03-18T21:05:06.360Z,16.30
2023-03-18T21:11:59.389Z,17.00
2023-03-18T21:16:29.409Z,18.10
2023-03-18T21:20:37.357Z,18.10
2023-03-18T21:23:36.596Z,19.10
2023-03-18T21:27:03.813Z,17.70
2023-03-18T21:30:12.854Z,17.10
2023-03-18T21:31:44.018Z,16.40
2023-03-18T21:33:15.534Z,16.10
2023-03-18T21:37:23.139Z,16.70
2023-03-18T21:38:55.192Z,16.90
2023-03-18T21:40:30.736Z,17.50
2023-03-18T21:42:18.596Z,15.30
2023-03-18T21:43:53.792Z,16.70
2023-03-18T21:45:22.864Z,16.20
2023-03-18T21:47:27.916Z,16.40
2023-03-18T21:53:59.362Z,16.10
2023-03-18T21:56:49.350Z,15.90
2023-03-18T21:58:18.330Z,16.30
2023-03-18T21:59:49.153Z,16.40
2023-03-18T22:01:40.016Z,15.60
2023-03-18T22:06:44.256Z,15.90
2023-03-18T22:08:43.208Z,14.80
2023-03-18T22:10:44.111Z,15.20
2023-03-18T22:12:13.039Z,14.90
2023-03-18T22:19:10.898Z,14.70
2023-03-18T22:20:59.677Z,13.40
2023-03-18T22:22:30.180Z,14.80
2023-03-18T22:27:12.553Z,15.80
2023-03-18T22:28:41.820Z,19.00
2023-03-18T22:30:29.568Z,17.20
2023-03-18T22:37:22.228Z,16.40
2023-03-18T22:42:17.814Z,17.60
2023-03-18T22:43:45.084Z,17.20
2023-03-18T22:50:07.387Z,20.10
2023-03-18T22:56:20.097Z,17.50
2023-03-18T22:58:39.152Z,19.30
2023-03-18T23:07:08.072Z,18.80
2023-03-18T23:09:39.319Z,19.90
2023-03-18T23:12:57.198Z,19.40
2023-03-18T23:16:23.343Z,20.00
2023-03-18T23:17:54.297Z,20.10
2023-03-18T23:19:24.958Z,19.40
2023-03-18T23:23:33.109Z,20.80
2023-03-18T23:25:21.421Z,19.70
2023-03-18T23:27:21.832Z,22.40
2023-03-18T23:28:49.124Z,20.70
2023-03-18T23:30:20.014Z,21.80
2023-03-18T23:31:51.063Z,21.00
2023-03-18T23:34:36.650Z,21.20
2023-03-18T23:38:28.484Z,20.80
2023-03-18T23:40:57.967Z,19.50
2023-03-18T23:44:56.281Z,19.50
2023-03-18T23:46:25.770Z,20.40
2023-03-18T23:50:42.770Z,22.50
2023-03-18T23:52:32.426Z,20.10
2023-03-18T23:54:02.354Z,20.50
2023-03-18T23:58:18.740Z,20.20
2023-03-18T23:59:52.653Z,20.60
